Virtual Norwegian Aeroclub

Virtual Norwegian Aeroclub! A new look to our va.




 METAR AND TAF INFORMATION
METAR FOR ENHF
ADDS - METARS form results

(1208 UTC 20 June 2019)
Data provider http://aviationweather.gov/metar/data/
 
METAR text: ENHF 201150Z 35006KT 300V060 9999 FEW019 09/02 Q1014 RMK WIND 1254FT 35008KT
Conditions at: ENHF (HAMMERFEST , NO) observed 1150 UTC 20 June 2019
Temperature: 9.0°C (48°F)
Dewpoint: 2.0°C (36°F) [RH = 61%]
Pressure (altimeter): 29.94 inches Hg (1014.0 mb)
Winds: from the N (350 degrees) at 7 MPH (6 knots; 3.1 m/s)
Visibility: 6 or more miles (10+ km)
Ceiling: at least 12,000 feet AGL
Clouds: few clouds at 1900 feet AGL
Weather: no significant weather observed at this time

METAR text: ENHF 201120Z 35007KT 290V030 9999 FEW018 09/03 Q1014 RMK WIND 1254FT 35010KT
Conditions at: ENHF (HAMMERFEST , NO) observed 1120 UTC 20 June 2019
Temperature: 9.0°C (48°F)
Dewpoint: 3.0°C (37°F) [RH = 66%]
Pressure (altimeter): 29.94 inches Hg (1014.0 mb)
Winds: from the N (350 degrees) at 8 MPH (7 knots; 3.6 m/s)
Visibility: 6 or more miles (10+ km)
Ceiling: at least 12,000 feet AGL
Clouds: few clouds at 1800 feet AGL
Weather: no significant weather observed at this time

Forecast for: ENHF (HAMMERFEST , NO)
Text: TAF ENHF 201100Z 2012/2021 VRB05KT 9999 FEW020
Forecast period: 1200 to 2100 UTC 20 June 2019
Forecast type: FROM: standard forecast or significant change
Winds: variable direction winds at 6 MPH (5 knots; 2.6 m/s)
Visibility: 6 or more miles 10+ km)
Ceiling: at least 12,000 feet AGL
Clouds: few clouds at 2000 feet AGL
Weather: no significant weather forecast for this period

 AIRPORT MAP

 RUNWAY INFORMATION
Runway 05 Runway length 2894 ft Runway width 0 ft
Runway elevation 259 ft Runway displaced threshold 0 ft Runway heading 0
Runway 23 Runway length 2894 ft Runway width 0 ft
Runway elevation 260 ft Runway displaced threshold 0 ft Runway heading 0

 AIRPORT FREQUENCIES

 AIRPORT NEAR NAVIGATION AIDS
Type VOR-DME Name Hammerfest Frequency 112400 KHZ